Aviation Digital Data Service (ADDS)

Output produced by METARs form (1831 UTC 06 May 2015)
found at http://aviationweather.gov/adds/metars/
 
KBHB 061753Z 0618/0718 27008KT P6SM FEW250 
     FM071200 32012G20KT P6SM SCT080 AMD LTD TO CLD VIS AND WIND